Bookmark and Share
Track history (hours):
 

Akvile

Last reported at 2014-Apr-22 04:12 UTC. Time now 2014-Apr-23 15:25 UTC.
Position N 34°39' E 011°30'.

Length 103 m; draft 5.1 m.

Type: Cargo ship. MMSI: 277073000.

NotesDate/timePositionNaut miles runAvg speedWind from/ knotsBaromVisibWave heightAir tempDewpointWater temp
2014-Apr-22 04:12N 34°39' E 011°30'24 8.9
2014-Apr-22 01:31N 34°59' E 011°45'1111.3
2014-Apr-22 00:33N 35°08' E 011°38'1111.4
2014-Apr-21 23:33N 35°18' E 011°30'1111.5
2014-Apr-21 22:33N 35°28' E 011°23'1211.5
2014-Apr-21 21:33N 35°37' E 011°15'1111.4
2014-Apr-21 20:33N 35°47' E 011°07'10 9.7
2014-Apr-21 19:33N 35°51' E 010°57'1111.2
2014-Apr-21 18:33N 35°50' E 010°43'4 3.3
2014-Apr-21 17:28N 35°50' E 010°39'0 0.0
2014-Apr-21 16:31N 35°50' E 010°39'0 0.0
2014-Apr-21 07:10N 35°50' E 010°39'0 0.0
2014-Apr-20 11:31N 35°50' E 010°39'0 0.0
2014-Apr-20 10:31N 35°50' E 010°39'0 0.0
2014-Apr-19 22:22N 35°50' E 010°39'0 0.0
2014-Apr-19 21:31N 35°50' E 010°39'0 0.0
2014-Apr-19 20:31N 35°50' E 010°39'0 0.0
2014-Apr-19 19:33N 35°50' E 010°39'2 1.8
2014-Apr-19 18:34N 35°50' E 010°41'0 0.1
2014-Apr-19 17:33N 35°50' E 010°41'2 1.7
2014-Apr-19 16:33N 35°51' E 010°41'1010.4
2014-Apr-19 15:33N 36°00' E 010°48'1010.1
2014-Apr-19 14:33N 36°09' E 010°54'1010.4
2014-Apr-19 13:33N 36°18' E 011°01'2110.6
2014-Apr-19 11:33N 36°37' E 011°13'1110.9
2014-Apr-19 10:33N 36°47' E 011°16'1110.8
2014-Apr-19 09:33N 36°58' E 011°18'1110.6
2014-Apr-19 08:33N 37°08' E 011°20'33110.9
2014-Apr-18 02:13N 42°32' E 009°49'2010.9
2014-Apr-18 00:24N 42°51' E 009°39'3310.9
2014-Apr-17 21:21N 43°24' E 009°44'911.5
2014-Apr-17 20:32N 43°33' E 009°46'1111.6
2014-Apr-17 19:33N 43°44' E 009°49'1111.4
2014-Apr-17 18:33N 43°55' E 009°51'1110.7
2014-Apr-17 17:33N 44°06' E 009°50'1 0.7
2014-Apr-17 16:32N 44°07' E 009°50'0 0.0
2014-Apr-17 15:31N 44°07' E 009°50'0 0.0
2014-Apr-17 14:32N 44°07' E 009°50'0 0.0
2014-Apr-17 13:32N 44°07' E 009°50'0 0.0
2014-Apr-17 12:31N 44°07' E 009°50'0 0.0
2014-Apr-17 11:31N 44°07' E 009°50'0 0.0
2014-Apr-17 10:31N 44°07' E 009°50'0 0.0
2014-Apr-17 09:32N 44°07' E 009°50'0 0.0
2014-Apr-17 08:32N 44°07' E 009°50'0 0.0
2014-Apr-17 07:32N 44°07' E 009°50'0 0.0
2014-Apr-17 06:31N 44°07' E 009°50'0 0.0
2014-Apr-17 05:31N 44°07' E 009°50'0 0.0
2014-Apr-17 04:31N 44°07' E 009°50'0 0.0
2014-Apr-17 03:31N 44°07' E 009°50'0 0.0
2014-Apr-17 02:31N 44°07' E 009°50'0 0.0
2014-Apr-17 01:31N 44°07' E 009°50'0 0.0
2014-Apr-17 00:31N 44°07' E 009°50'0 0.0
2014-Apr-16 23:32N 44°07' E 009°50'0 0.0
2014-Apr-16 22:31N 44°07' E 009°50'0 0.0
2014-Apr-16 21:32N 44°07' E 009°50'0 0.0
2014-Apr-16 20:31N 44°07' E 009°50'0 0.0
2014-Apr-16 19:31N 44°07' E 009°50'1 0.9
2014-Apr-16 18:33N 44°06' E 009°51'0 0.0
2014-Apr-16 17:33N 44°06' E 009°51'0 0.0
2014-Apr-16 16:33N 44°06' E 009°51'0 0.0
2014-Apr-16 15:33N 44°06' E 009°51'0 0.0
2014-Apr-16 14:33N 44°06' E 009°51'0 0.0
2014-Apr-16 13:33N 44°06' E 009°51'0 0.0
2014-Apr-16 12:33N 44°06' E 009°51'2 2.0
2014-Apr-16 11:33N 44°04' E 009°51'3 2.8
2014-Apr-16 10:33N 44°02' E 009°54'5 4.7
2014-Apr-16 09:33N 43°58' E 009°53'1212.4
2014-Apr-16 08:33N 43°45' E 009°49'1212.0
2014-Apr-16 07:33N 43°34' E 009°47'1111.3
2014-Apr-16 06:33N 43°22' E 009°45'1111.1
2014-Apr-16 05:33N 43°11' E 009°42'36811.5
2014-Apr-14 21:32N 37°11' E 011°24'1111.7
2014-Apr-14 20:34N 37°00' E 011°27'1212.0
2014-Apr-14 19:34N 36°48' E 011°29'1212.0
2014-Apr-14 18:34N 36°36' E 011°32'1212.0
2014-Apr-14 17:34N 36°25' E 011°34'1212.1
2014-Apr-14 16:34N 36°13' E 011°36'2412.1
2014-Apr-14 14:34N 35°49' E 011°41'81 2.2
2014-Apr-13 02:09N 34°39' E 010°48'0 0.1
2014-Apr-12 23:32N 34°39' E 010°48'1410.9
2014-Apr-12 22:14N 34°27' E 010°57'812.3
2014-Apr-12 21:33N 34°30' E 011°06'1212.0
2014-Apr-12 20:33N 34°35' E 011°20'1211.9
2014-Apr-12 19:33N 34°40' E 011°33'25 8.4
2014-Apr-12 16:33N 35°04' E 011°41'1111.1
2014-Apr-12 15:33N 35°13' E 011°34'1111.5
2014-Apr-12 14:33N 35°23' E 011°26'1111.5
2014-Apr-12 13:33N 35°33' E 011°19'1111.4
2014-Apr-12 12:33N 35°42' E 011°12'1111.1
2014-Apr-12 11:33N 35°51' E 011°03'1211.5
2014-Apr-12 10:34N 35°50' E 010°48'8 7.7
2014-Apr-12 09:31N 35°50' E 010°39'0 0.0
2014-Apr-12 08:31N 35°50' E 010°39'0 0.0
2014-Apr-12 07:19N 35°50' E 010°39'0 0.0
2014-Apr-12 06:31N 35°50' E 010°39'0 0.0
2014-Apr-12 05:31N 35°50' E 010°39'0 0.0
2014-Apr-12 04:31N 35°50' E 010°39'  

Dump ship's entire track history

sailing weather and tide predictions

Akvile — LYJM — position and weather